This is the latest recevied weather packets stored in our database for station/object JH7UAX-10. If no packets are shown the sender has not sent any weather packets the latest 10 day(s).
| Time | Temp. | Humidity | Pressure | Rain* | Wind** | Luminosity | Snow |
|---|---|---|---|---|---|---|---|
| 1777847405 | 14.44° C | 95% | 1005.4 hPa | 0 mm | - | - | - |
| 1777846979 | 14.44° C | 95% | 1005.3 hPa | 0 mm | - | - | - |
| 1777846506 | 14.44° C | 95% | 1005.4 hPa | 0 mm | - | - | - |
| 1777846078 | 13.89° C | 95% | 1005.5 hPa | 0 mm | - | - | - |
| 1777845178 | 13.33° C | 96% | 1005.6 hPa | 0 mm | - | - | - |
| 1777844707 | 12.78° C | 96% | 1005.8 hPa | 0 mm | - | - | - |
| 1777844278 | 12.78° C | 96% | 1006 hPa | 0 mm | - | - | - |
| 1777843805 | 12.78° C | 96% | 1006.2 hPa | 0 mm | - | - | - |
| 1777843378 | 12.22° C | 96% | 1006.4 hPa | 0 mm | - | - | - |
| 1777842477 | 12.22° C | 96% | 1006.6 hPa | 0.25 mm | - | - | - |
| 1777842005 | 12.22° C | 96% | 1006.7 hPa | 0.51 mm | - | - | - |
| 1777841578 | 12.22° C | 96% | 1006.8 hPa | 1.02 mm | - | - | - |
| 1777840678 | 12.22° C | 96% | 1006.8 hPa | 1.27 mm | - | - | - |
| 1777839777 | 12.22° C | 96% | 1006.9 hPa | 1.02 mm | - | - | - |
| 1777838877 | 12.22° C | 95% | 1007.1 hPa | 0.76 mm | - | - | - |
| 1777838405 | 12.22° C | 95% | 1007.3 hPa | 0.51 mm | - | - | - |
| 1777837979 | 12.22° C | 95% | 1007.5 hPa | 0 mm | - | - | - |
| 1777837079 | 12.22° C | 95% | 1007.6 hPa | 0 mm | - | - | - |
| 1777836604 | 12.22° C | 95% | 1007.6 hPa | 0.25 mm | - | - | - |
| 1777836177 | 12.22° C | 95% | 1007.6 hPa | 0.51 mm | - | - | - |
| 1777835705 | 12.22° C | 95% | 1007.7 hPa | 0.51 mm | - | - | - |
| 1777835277 | 12.22° C | 95% | 1007.9 hPa | 0.51 mm | - | - | - |
| 1777834379 | 12.22° C | 95% | 1007.9 hPa | 0.76 mm | - | - | - |
| 1777833479 | 11.67° C | 94% | 1008.4 hPa | 0.51 mm | - | - | - |
| 1777832578 | 11.67° C | 94% | 1008.8 hPa | 0.25 mm | - | - | - |
* Rain latest hour (hover to see other rain measurements)
** Current wind speed in m/s (hover to see current wind gust speed)